sensor_id;sensor_type;location;lat;lon;timestamp;temperature;humidity
74513;DHT22;62992;52.052;8.550;2023-07-13T00:01:04;17.90;99.90
74513;DHT22;62992;52.052;8.550;2023-07-13T00:03:50;17.90;99.90
74513;DHT22;62992;52.052;8.550;2023-07-13T00:06:34;17.80;99.90
74513;DHT22;62992;52.052;8.550;2023-07-13T00:09:19;17.70;99.90
74513;DHT22;62992;52.052;8.550;2023-07-13T00:12:03;17.70;99.90
74513;DHT22;62992;52.052;8.550;2023-07-13T00:14:47;17.70;99.90
74513;DHT22;62992;52.052;8.550;2023-07-13T00:17:31;17.70;99.90
74513;DHT22;62992;52.052;8.550;2023-07-13T00:20:16;17.70;99.90
74513;DHT22;62992;52.052;8.550;2023-07-13T00:23:00;17.70;99.90
74513;DHT22;62992;52.052;8.550;2023-07-13T00:25:44;17.80;99.90
74513;DHT22;62992;52.052;8.550;2023-07-13T00:28:29;17.70;99.90
74513;DHT22;62992;52.052;8.550;2023-07-13T00:31:13;17.60;99.90
74513;DHT22;62992;52.052;8.550;2023-07-13T00:34:01;17.60;99.90
74513;DHT22;62992;52.052;8.550;2023-07-13T00:36:45;17.60;99.90
74513;DHT22;62992;52.052;8.550;2023-07-13T00:39:29;17.50;99.90
74513;DHT22;62992;52.052;8.550;2023-07-13T00:42:14;17.50;99.90
74513;DHT22;62992;52.052;8.550;2023-07-13T00:45:02;17.60;99.90
74513;DHT22;62992;52.052;8.550;2023-07-13T00:47:47;17.60;99.90
74513;DHT22;62992;52.052;8.550;2023-07-13T00:50:31;17.60;99.90
74513;DHT22;62992;52.052;8.550;2023-07-13T00:53:15;17.70;99.90
74513;DHT22;62992;52.052;8.550;2023-07-13T00:55:59;17.80;99.90
74513;DHT22;62992;52.052;8.550;2023-07-13T00:58:43;17.70;99.90
74513;DHT22;62992;52.052;8.550;2023-07-13T01:01:28;17.80;99.90
74513;DHT22;62992;52.052;8.550;2023-07-13T01:04:12;17.80;99.90
74513;DHT22;62992;52.052;8.550;2023-07-13T01:06:57;17.70;99.90
74513;DHT22;62992;52.052;8.550;2023-07-13T01:09:41;17.70;99.90
74513;DHT22;62992;52.052;8.550;2023-07-13T01:12:26;17.70;99.90
74513;DHT22;62992;52.052;8.550;2023-07-13T01:18:31;17.70;99.90
74513;DHT22;62992;52.052;8.550;2023-07-13T01:21:16;17.60;99.90
74513;DHT22;62992;52.052;8.550;2023-07-13T01:24:01;17.70;99.90
74513;DHT22;62992;52.052;8.550;2023-07-13T01:26:46;17.70;99.90
74513;DHT22;62992;52.052;8.550;2023-07-13T01:29:30;17.60;99.90
74513;DHT22;62992;52.052;8.550;2023-07-13T01:32:17;17.70;99.90
74513;DHT22;62992;52.052;8.550;2023-07-13T01:35:08;17.70;99.90
74513;DHT22;62992;52.052;8.550;2023-07-13T01:37:52;17.80;99.90
74513;DHT22;62992;52.052;8.550;2023-07-13T01:40:37;17.80;99.90
74513;DHT22;62992;52.052;8.550;2023-07-13T01:43:21;17.70;99.90
74513;DHT22;62992;52.052;8.550;2023-07-13T01:46:05;17.80;99.90
74513;DHT22;62992;52.052;8.550;2023-07-13T01:48:50;17.80;99.90
74513;DHT22;62992;52.052;8.550;2023-07-13T01:51:34;17.80;99.90
74513;DHT22;62992;52.052;8.550;2023-07-13T01:54:18;17.70;99.90
74513;DHT22;62992;52.052;8.550;2023-07-13T01:57:02;17.70;99.90
74513;DHT22;62992;52.052;8.550;2023-07-13T01:59:47;17.60;99.90
74513;DHT22;62992;52.052;8.550;2023-07-13T02:02:31;17.70;99.90
74513;DHT22;62992;52.052;8.550;2023-07-13T02:05:15;17.70;99.90
74513;DHT22;62992;52.052;8.550;2023-07-13T02:08:00;17.50;99.90
74513;DHT22;62992;52.052;8.550;2023-07-13T02:10:44;17.50;99.90
74513;DHT22;62992;52.052;8.550;2023-07-13T02:13:28;17.50;99.90
74513;DHT22;62992;52.052;8.550;2023-07-13T02:16:12;17.50;99.90
74513;DHT22;62992;52.052;8.550;2023-07-13T02:18:57;17.50;99.90
74513;DHT22;62992;52.052;8.550;2023-07-13T02:21:41;17.40;99.90
74513;DHT22;62992;52.052;8.550;2023-07-13T02:24:25;17.50;99.90
74513;DHT22;62992;52.052;8.550;2023-07-13T02:27:09;17.40;99.90
74513;DHT22;62992;52.052;8.550;2023-07-13T02:29:53;17.40;99.90
74513;DHT22;62992;52.052;8.550;2023-07-13T02:32:38;17.30;99.90
74513;DHT22;62992;52.052;8.550;2023-07-13T02:35:22;17.30;99.90
74513;DHT22;62992;52.052;8.550;2023-07-13T02:38:06;17.10;99.90
74513;DHT22;62992;52.052;8.550;2023-07-13T02:40:50;17.20;99.90
74513;DHT22;62992;52.052;8.550;2023-07-13T02:43:35;17.00;99.90
74513;DHT22;62992;52.052;8.550;2023-07-13T02:46:19;17.10;99.90
74513;DHT22;62992;52.052;8.550;2023-07-13T02:49:04;17.10;99.90
74513;DHT22;62992;52.052;8.550;2023-07-13T02:51:48;17.00;99.90
74513;DHT22;62992;52.052;8.550;2023-07-13T02:54:32;16.90;99.90
74513;DHT22;62992;52.052;8.550;2023-07-13T02:57:16;16.90;99.90
74513;DHT22;62992;52.052;8.550;2023-07-13T03:00:01;16.90;99.90
74513;DHT22;62992;52.052;8.550;2023-07-13T03:02:49;16.80;99.90
74513;DHT22;62992;52.052;8.550;2023-07-13T03:05:33;16.80;99.90
74513;DHT22;62992;52.052;8.550;2023-07-13T03:08:17;16.90;99.90
74513;DHT22;62992;52.052;8.550;2023-07-13T03:11:03;16.80;99.90
74513;DHT22;62992;52.052;8.550;2023-07-13T03:13:47;16.80;99.90
74513;DHT22;62992;52.052;8.550;2023-07-13T03:16:32;16.70;99.90
74513;DHT22;62992;52.052;8.550;2023-07-13T03:19:16;16.70;99.90
74513;DHT22;62992;52.052;8.550;2023-07-13T03:22:00;16.80;99.90
74513;DHT22;62992;52.052;8.550;2023-07-13T03:24:44;16.80;99.90
74513;DHT22;62992;52.052;8.550;2023-07-13T03:27:28;16.90;99.90
74513;DHT22;62992;52.052;8.550;2023-07-13T03:30:13;16.90;99.90
74513;DHT22;62992;52.052;8.550;2023-07-13T03:32:57;16.70;99.90
74513;DHT22;62992;52.052;8.550;2023-07-13T03:35:41;16.80;99.90
74513;DHT22;62992;52.052;8.550;2023-07-13T03:38:25;16.70;99.90
74513;DHT22;62992;52.052;8.550;2023-07-13T03:41:10;16.60;99.90
74513;DHT22;62992;52.052;8.550;2023-07-13T03:43:54;16.60;99.90
74513;DHT22;62992;52.052;8.550;2023-07-13T03:46:38;16.70;99.90
74513;DHT22;62992;52.052;8.550;2023-07-13T03:49:22;16.60;99.90
74513;DHT22;62992;52.052;8.550;2023-07-13T03:52:06;16.50;99.90
74513;DHT22;62992;52.052;8.550;2023-07-13T03:54:50;16.50;99.90
74513;DHT22;62992;52.052;8.550;2023-07-13T03:57:35;16.50;99.90
74513;DHT22;62992;52.052;8.550;2023-07-13T04:00:19;16.50;99.90
74513;DHT22;62992;52.052;8.550;2023-07-13T04:03:03;16.50;99.90
74513;DHT22;62992;52.052;8.550;2023-07-13T04:05:47;16.50;99.90
74513;DHT22;62992;52.052;8.550;2023-07-13T04:08:33;16.30;99.90
74513;DHT22;62992;52.052;8.550;2023-07-13T04:11:22;16.40;99.90
74513;DHT22;62992;52.052;8.550;2023-07-13T04:14:06;16.40;99.90
74513;DHT22;62992;52.052;8.550;2023-07-13T04:16:50;16.40;99.90
74513;DHT22;62992;52.052;8.550;2023-07-13T04:19:35;16.50;99.90
74513;DHT22;62992;52.052;8.550;2023-07-13T04:22:19;16.40;99.90
74513;DHT22;62992;52.052;8.550;2023-07-13T04:25:03;16.40;99.90
74513;DHT22;62992;52.052;8.550;2023-07-13T04:27:49;16.50;99.90
74513;DHT22;62992;52.052;8.550;2023-07-13T04:30:33;16.40;99.90
74513;DHT22;62992;52.052;8.550;2023-07-13T04:33:17;16.40;99.90
74513;DHT22;62992;52.052;8.550;2023-07-13T04:36:01;16.40;99.90
74513;DHT22;62992;52.052;8.550;2023-07-13T04:38:46;16.50;99.90
74513;DHT22;62992;52.052;8.550;2023-07-13T04:41:30;16.60;99.90
74513;DHT22;62992;52.052;8.550;2023-07-13T04:44:14;16.50;99.90
74513;DHT22;62992;52.052;8.550;2023-07-13T04:46:58;16.60;99.90
74513;DHT22;62992;52.052;8.550;2023-07-13T04:49:42;16.60;99.90
74513;DHT22;62992;52.052;8.550;2023-07-13T04:52:27;16.60;99.90
74513;DHT22;62992;52.052;8.550;2023-07-13T04:55:11;16.60;99.90
74513;DHT22;62992;52.052;8.550;2023-07-13T04:57:55;16.70;99.90
74513;DHT22;62992;52.052;8.550;2023-07-13T05:00:39;16.70;99.90
74513;DHT22;62992;52.052;8.550;2023-07-13T05:03:23;16.70;99.90
74513;DHT22;62992;52.052;8.550;2023-07-13T05:06:07;16.60;99.90
74513;DHT22;62992;52.052;8.550;2023-07-13T05:08:54;16.70;99.90
74513;DHT22;62992;52.052;8.550;2023-07-13T05:11:38;16.70;99.90
74513;DHT22;62992;52.052;8.550;2023-07-13T05:14:22;16.80;99.90
74513;DHT22;62992;52.052;8.550;2023-07-13T05:17:06;16.80;99.90
74513;DHT22;62992;52.052;8.550;2023-07-13T05:19:50;16.90;99.90
74513;DHT22;62992;52.052;8.550;2023-07-13T05:22:35;16.90;99.90
74513;DHT22;62992;52.052;8.550;2023-07-13T05:25:19;17.10;99.90
74513;DHT22;62992;52.052;8.550;2023-07-13T05:28:03;17.30;99.90
74513;DHT22;62992;52.052;8.550;2023-07-13T05:30:48;17.30;99.90
74513;DHT22;62992;52.052;8.550;2023-07-13T05:33:32;17.30;99.90
74513;DHT22;62992;52.052;8.550;2023-07-13T05:36:16;17.70;99.90
74513;DHT22;62992;52.052;8.550;2023-07-13T05:39:00;17.90;99.90
74513;DHT22;62992;52.052;8.550;2023-07-13T05:41:44;18.30;99.90
74513;DHT22;62992;52.052;8.550;2023-07-13T05:44:29;18.70;99.90
74513;DHT22;62992;52.052;8.550;2023-07-13T05:47:13;18.70;99.90
74513;DHT22;62992;52.052;8.550;2023-07-13T05:49:58;19.10;99.90
74513;DHT22;62992;52.052;8.550;2023-07-13T05:52:42;19.20;99.90
74513;DHT22;62992;52.052;8.550;2023-07-13T05:55:26;19.70;99.90
74513;DHT22;62992;52.052;8.550;2023-07-13T05:58:11;19.80;99.90
74513;DHT22;62992;52.052;8.550;2023-07-13T06:01:02;20.60;99.90
74513;DHT22;62992;52.052;8.550;2023-07-13T06:03:47;21.00;99.90
74513;DHT22;62992;52.052;8.550;2023-07-13T06:06:31;20.80;99.90
74513;DHT22;62992;52.052;8.550;2023-07-13T06:09:15;21.60;99.90
74513;DHT22;62992;52.052;8.550;2023-07-13T06:11:59;22.00;99.90
74513;DHT22;62992;52.052;8.550;2023-07-13T06:14:44;22.70;99.90
74513;DHT22;62992;52.052;8.550;2023-07-13T06:17:28;23.30;99.90
74513;DHT22;62992;52.052;8.550;2023-07-13T06:20:12;23.30;99.80
74513;DHT22;62992;52.052;8.550;2023-07-13T06:22:56;23.50;99.90
74513;DHT22;62992;52.052;8.550;2023-07-13T06:25:40;23.40;99.90
74513;DHT22;62992;52.052;8.550;2023-07-13T06:28:25;23.90;99.50
74513;DHT22;62992;52.052;8.550;2023-07-13T06:31:09;24.60;98.80
74513;DHT22;62992;52.052;8.550;2023-07-13T06:33:54;25.00;99.20
74513;DHT22;62992;52.052;8.550;2023-07-13T06:36:38;25.30;98.40
74513;DHT22;62992;52.052;8.550;2023-07-13T06:39:22;24.40;99.50
74513;DHT22;62992;52.052;8.550;2023-07-13T06:42:06;25.30;99.00
74513;DHT22;62992;52.052;8.550;2023-07-13T06:44:50;24.90;98.20
74513;DHT22;62992;52.052;8.550;2023-07-13T06:47:35;24.90;98.10
74513;DHT22;62992;52.052;8.550;2023-07-13T06:50:19;25.30;97.80
74513;DHT22;62992;52.052;8.550;2023-07-13T06:53:03;25.90;98.20
74513;DHT22;62992;52.052;8.550;2023-07-13T06:55:48;26.50;96.40
74513;DHT22;62992;52.052;8.550;2023-07-13T06:58:33;25.90;97.60
74513;DHT22;62992;52.052;8.550;2023-07-13T07:01:17;25.60;97.00
74513;DHT22;62992;52.052;8.550;2023-07-13T07:04:02;25.90;97.20
74513;DHT22;62992;52.052;8.550;2023-07-13T07:06:47;25.80;97.20
74513;DHT22;62992;52.052;8.550;2023-07-13T07:09:31;26.30;96.80
74513;DHT22;62992;52.052;8.550;2023-07-13T07:12:15;26.00;96.70
74513;DHT22;62992;52.052;8.550;2023-07-13T07:14:59;26.50;96.20
74513;DHT22;62992;52.052;8.550;2023-07-13T07:17:43;26.00;96.30
74513;DHT22;62992;52.052;8.550;2023-07-13T07:20:27;26.10;97.20
74513;DHT22;62992;52.052;8.550;2023-07-13T07:23:12;26.70;96.90
74513;DHT22;62992;52.052;8.550;2023-07-13T07:25:56;25.00;96.50
74513;DHT22;62992;52.052;8.550;2023-07-13T07:28:40;25.90;96.90
74513;DHT22;62992;52.052;8.550;2023-07-13T07:31:24;26.60;96.90
74513;DHT22;62992;52.052;8.550;2023-07-13T07:34:08;25.40;97.00
74513;DHT22;62992;52.052;8.550;2023-07-13T07:36:53;26.30;95.80
74513;DHT22;62992;52.052;8.550;2023-07-13T07:39:37;26.90;94.90
74513;DHT22;62992;52.052;8.550;2023-07-13T07:42:22;25.10;97.10
74513;DHT22;62992;52.052;8.550;2023-07-13T07:45:06;25.60;97.30
74513;DHT22;62992;52.052;8.550;2023-07-13T07:47:50;25.50;96.80
74513;DHT22;62992;52.052;8.550;2023-07-13T07:50:35;25.50;97.70
74513;DHT22;62992;52.052;8.550;2023-07-13T07:53:19;25.90;98.10
74513;DHT22;62992;52.052;8.550;2023-07-13T07:56:03;25.00;97.30
74513;DHT22;62992;52.052;8.550;2023-07-13T07:58:47;24.20;98.20
74513;DHT22;62992;52.052;8.550;2023-07-13T08:01:31;25.10;99.20
74513;DHT22;62992;52.052;8.550;2023-07-13T08:04:16;26.40;97.70
74513;DHT22;62992;52.052;8.550;2023-07-13T08:07:00;27.10;96.40
74513;DHT22;62992;52.052;8.550;2023-07-13T08:09:46;26.00;96.00
74513;DHT22;62992;52.052;8.550;2023-07-13T08:12:33;26.10;97.30
74513;DHT22;62992;52.052;8.550;2023-07-13T08:15:18;25.80;97.30
74513;DHT22;62992;52.052;8.550;2023-07-13T08:18:04;26.40;96.90
74513;DHT22;62992;52.052;8.550;2023-07-13T08:20:48;27.00;95.70
74513;DHT22;62992;52.052;8.550;2023-07-13T08:23:33;26.40;96.60
74513;DHT22;62992;52.052;8.550;2023-07-13T08:26:17;25.40;97.40
74513;DHT22;62992;52.052;8.550;2023-07-13T08:29:01;25.00;97.80
74513;DHT22;62992;52.052;8.550;2023-07-13T08:31:46;26.60;96.90
74513;DHT22;62992;52.052;8.550;2023-07-13T08:34:30;26.50;96.60
74513;DHT22;62992;52.052;8.550;2023-07-13T08:37:14;27.50;95.40
74513;DHT22;62992;52.052;8.550;2023-07-13T08:39:58;27.80;94.60
74513;DHT22;62992;52.052;8.550;2023-07-13T08:42:46;28.00;93.60
74513;DHT22;62992;52.052;8.550;2023-07-13T08:54:14;25.00;96.60
74513;DHT22;62992;52.052;8.550;2023-07-13T08:57:02;25.90;96.00
74513;DHT22;62992;52.052;8.550;2023-07-13T08:59:47;24.90;97.20
74513;DHT22;62992;52.052;8.550;2023-07-13T09:02:39;26.10;97.00
74513;DHT22;62992;52.052;8.550;2023-07-13T09:05:26;26.80;95.50
74513;DHT22;62992;52.052;8.550;2023-07-13T09:16:46;25.50;97.50
74513;DHT22;62992;52.052;8.550;2023-07-13T09:19:32;25.50;96.90
74513;DHT22;62992;52.052;8.550;2023-07-13T09:22:17;24.80;96.40
74513;DHT22;62992;52.052;8.550;2023-07-13T09:28:00;24.60;98.10
74513;DHT22;62992;52.052;8.550;2023-07-13T09:33:35;24.90;96.30
74513;DHT22;62992;52.052;8.550;2023-07-13T09:36:21;24.90;97.70
74513;DHT22;62992;52.052;8.550;2023-07-13T09:41:59;26.00;96.10
74513;DHT22;62992;52.052;8.550;2023-07-13T09:44:58;25.70;96.60
74513;DHT22;62992;52.052;8.550;2023-07-13T09:47:42;25.50;96.30
74513;DHT22;62992;52.052;8.550;2023-07-13T09:50:27;25.50;96.50
74513;DHT22;62992;52.052;8.550;2023-07-13T09:53:17;25.90;95.50
74513;DHT22;62992;52.052;8.550;2023-07-13T09:56:01;25.00;96.50
74513;DHT22;62992;52.052;8.550;2023-07-13T09:58:46;25.40;96.30
74513;DHT22;62992;52.052;8.550;2023-07-13T10:04:18;26.00;96.50
74513;DHT22;62992;52.052;8.550;2023-07-13T10:07:06;26.40;94.70
74513;DHT22;62992;52.052;8.550;2023-07-13T10:09:54;26.70;95.40
74513;DHT22;62992;52.052;8.550;2023-07-13T10:12:38;26.70;94.20
74513;DHT22;62992;52.052;8.550;2023-07-13T10:15:23;26.40;94.40
74513;DHT22;62992;52.052;8.550;2023-07-13T10:18:09;25.80;93.90
74513;DHT22;62992;52.052;8.550;2023-07-13T10:20:54;26.40;96.30
74513;DHT22;62992;52.052;8.550;2023-07-13T10:23:38;26.40;95.70
74513;DHT22;62992;52.052;8.550;2023-07-13T10:26:25;26.20;94.40
74513;DHT22;62992;52.052;8.550;2023-07-13T10:29:11;25.10;95.00
74513;DHT22;62992;52.052;8.550;2023-07-13T10:31:56;25.30;95.20
74513;DHT22;62992;52.052;8.550;2023-07-13T10:34:41;26.50;94.90
74513;DHT22;62992;52.052;8.550;2023-07-13T10:37:29;26.90;94.30
74513;DHT22;62992;52.052;8.550;2023-07-13T10:40:18;25.20;94.40
74513;DHT22;62992;52.052;8.550;2023-07-13T10:43:04;24.50;96.70
74513;DHT22;62992;52.052;8.550;2023-07-13T10:45:50;24.20;97.90
74513;DHT22;62992;52.052;8.550;2023-07-13T10:48:35;24.70;96.50
74513;DHT22;62992;52.052;8.550;2023-07-13T10:51:21;25.60;96.30
74513;DHT22;62992;52.052;8.550;2023-07-13T10:54:14;25.10;95.30
74513;DHT22;62992;52.052;8.550;2023-07-13T11:02:57;23.70;98.10
74513;DHT22;62992;52.052;8.550;2023-07-13T11:05:44;24.40;96.60
74513;DHT22;62992;52.052;8.550;2023-07-13T11:26:00;24.90;95.50
74513;DHT22;62992;52.052;8.550;2023-07-13T11:28:45;25.30;94.80
74513;DHT22;62992;52.052;8.550;2023-07-13T11:31:33;25.30;94.20
74513;DHT22;62992;52.052;8.550;2023-07-13T11:34:18;25.10;94.40
74513;DHT22;62992;52.052;8.550;2023-07-13T11:37:10;24.10;95.60
74513;DHT22;62992;52.052;8.550;2023-07-13T11:39:55;23.70;96.80
74513;DHT22;62992;52.052;8.550;2023-07-13T11:42:39;23.10;97.10
74513;DHT22;62992;52.052;8.550;2023-07-13T11:45:23;22.50;98.30
74513;DHT22;62992;52.052;8.550;2023-07-13T11:48:21;22.80;99.20
74513;DHT22;62992;52.052;8.550;2023-07-13T11:51:05;23.20;98.40
74513;DHT22;62992;52.052;8.550;2023-07-13T11:53:51;24.60;97.70
74513;DHT22;62992;52.052;8.550;2023-07-13T11:56:35;24.80;95.90
74513;DHT22;62992;52.052;8.550;2023-07-13T11:59:20;24.30;96.10
74513;DHT22;62992;52.052;8.550;2023-07-13T12:02:09;25.10;96.30
74513;DHT22;62992;52.052;8.550;2023-07-13T12:04:58;25.50;95.30
74513;DHT22;62992;52.052;8.550;2023-07-13T12:07:43;24.90;95.40
74513;DHT22;62992;52.052;8.550;2023-07-13T12:10:28;25.10;95.70
74513;DHT22;62992;52.052;8.550;2023-07-13T12:13:12;25.30;95.00
74513;DHT22;62992;52.052;8.550;2023-07-13T12:15:57;25.60;94.30
74513;DHT22;62992;52.052;8.550;2023-07-13T12:18:42;25.50;94.20
74513;DHT22;62992;52.052;8.550;2023-07-13T12:21:31;25.30;94.40
74513;DHT22;62992;52.052;8.550;2023-07-13T12:24:16;25.50;95.60
74513;DHT22;62992;52.052;8.550;2023-07-13T12:27:01;25.20;95.90
74513;DHT22;62992;52.052;8.550;2023-07-13T12:29:50;24.50;96.00
74513;DHT22;62992;52.052;8.550;2023-07-13T12:32:35;24.40;96.50
74513;DHT22;62992;52.052;8.550;2023-07-13T12:35:19;24.50;95.80
74513;DHT22;62992;52.052;8.550;2023-07-13T12:38:04;25.00;95.70
74513;DHT22;62992;52.052;8.550;2023-07-13T12:40:52;25.50;93.80
74513;DHT22;62992;52.052;8.550;2023-07-13T12:43:36;25.30;93.80
74513;DHT22;62992;52.052;8.550;2023-07-13T12:46:24;25.60;93.90
74513;DHT22;62992;52.052;8.550;2023-07-13T12:49:08;25.30;92.40
74513;DHT22;62992;52.052;8.550;2023-07-13T12:51:57;24.80;93.60
74513;DHT22;62992;52.052;8.550;2023-07-13T12:54:52;24.40;93.30
74513;DHT22;62992;52.052;8.550;2023-07-13T12:57:49;24.50;93.70
74513;DHT22;62992;52.052;8.550;2023-07-13T13:00:35;24.80;94.60
74513;DHT22;62992;52.052;8.550;2023-07-13T13:08:59;24.30;95.60
74513;DHT22;62992;52.052;8.550;2023-07-13T13:11:43;24.10;95.50
74513;DHT22;62992;52.052;8.550;2023-07-13T13:14:27;24.00;95.00
74513;DHT22;62992;52.052;8.550;2023-07-13T13:17:17;24.30;95.10
74513;DHT22;62992;52.052;8.550;2023-07-13T13:23:00;24.10;94.30
74513;DHT22;62992;52.052;8.550;2023-07-13T13:25:45;24.00;95.70
74513;DHT22;62992;52.052;8.550;2023-07-13T13:28:31;23.90;95.00
74513;DHT22;62992;52.052;8.550;2023-07-13T13:31:16;23.40;95.90
74513;DHT22;62992;52.052;8.550;2023-07-13T13:34:00;23.30;96.40
74513;DHT22;62992;52.052;8.550;2023-07-13T13:36:45;23.20;96.10
74513;DHT22;62992;52.052;8.550;2023-07-13T13:39:34;23.10;97.10
74513;DHT22;62992;52.052;8.550;2023-07-13T13:42:19;22.80;97.30
74513;DHT22;62992;52.052;8.550;2023-07-13T13:45:06;22.60;96.90
74513;DHT22;62992;52.052;8.550;2023-07-13T13:47:51;22.20;98.70
74513;DHT22;62992;52.052;8.550;2023-07-13T13:50:35;21.60;99.90
74513;DHT22;62992;52.052;8.550;2023-07-13T13:53:20;21.00;99.90
74513;DHT22;62992;52.052;8.550;2023-07-13T13:56:04;20.70;99.90
74513;DHT22;62992;52.052;8.550;2023-07-13T13:58:49;20.30;99.90
74513;DHT22;62992;52.052;8.550;2023-07-13T14:01:33;20.10;99.90
74513;DHT22;62992;52.052;8.550;2023-07-13T14:04:19;19.70;99.90
74513;DHT22;62992;52.052;8.550;2023-07-13T14:07:03;19.50;99.90
74513;DHT22;62992;52.052;8.550;2023-07-13T14:09:49;19.40;99.90
74513;DHT22;62992;52.052;8.550;2023-07-13T14:12:33;19.30;99.90
74513;DHT22;62992;52.052;8.550;2023-07-13T14:15:20;19.40;99.90
74513;DHT22;62992;52.052;8.550;2023-07-13T14:18:04;19.50;99.90
74513;DHT22;62992;52.052;8.550;2023-07-13T14:20:48;19.70;99.90
74513;DHT22;62992;52.052;8.550;2023-07-13T14:23:32;19.90;99.90
74513;DHT22;62992;52.052;8.550;2023-07-13T14:26:21;20.00;99.90
74513;DHT22;62992;52.052;8.550;2023-07-13T14:29:11;20.10;99.90
74513;DHT22;62992;52.052;8.550;2023-07-13T14:31:57;20.00;99.90
74513;DHT22;62992;52.052;8.550;2023-07-13T14:34:41;19.80;99.90
74513;DHT22;62992;52.052;8.550;2023-07-13T14:37:26;19.70;99.90
74513;DHT22;62992;52.052;8.550;2023-07-13T14:43:00;19.50;99.90
74513;DHT22;62992;52.052;8.550;2023-07-13T14:45:46;19.60;99.90
74513;DHT22;62992;52.052;8.550;2023-07-13T14:48:31;19.50;99.90
74513;DHT22;62992;52.052;8.550;2023-07-13T14:51:15;19.30;99.90
74513;DHT22;62992;52.052;8.550;2023-07-13T14:54:02;19.20;99.90
74513;DHT22;62992;52.052;8.550;2023-07-13T14:56:47;18.90;99.90
74513;DHT22;62992;52.052;8.550;2023-07-13T14:59:31;18.70;99.90
74513;DHT22;62992;52.052;8.550;2023-07-13T15:02:17;18.50;99.90
74513;DHT22;62992;52.052;8.550;2023-07-13T15:05:01;18.40;99.90
74513;DHT22;62992;52.052;8.550;2023-07-13T15:07:47;18.50;99.90
74513;DHT22;62992;52.052;8.550;2023-07-13T15:10:32;18.50;99.90
74513;DHT22;62992;52.052;8.550;2023-07-13T15:13:20;18.40;99.90
74513;DHT22;62992;52.052;8.550;2023-07-13T15:16:04;18.30;99.90
74513;DHT22;62992;52.052;8.550;2023-07-13T15:18:49;18.60;99.90
74513;DHT22;62992;52.052;8.550;2023-07-13T15:21:33;18.60;99.90
74513;DHT22;62992;52.052;8.550;2023-07-13T15:24:18;18.50;99.90
74513;DHT22;62992;52.052;8.550;2023-07-13T15:27:04;18.60;99.90
74513;DHT22;62992;52.052;8.550;2023-07-13T15:29:48;18.60;99.90
74513;DHT22;62992;52.052;8.550;2023-07-13T15:32:32;18.50;99.90
74513;DHT22;62992;52.052;8.550;2023-07-13T15:35:24;18.50;99.90
74513;DHT22;62992;52.052;8.550;2023-07-13T15:41:26;18.30;99.90
74513;DHT22;62992;52.052;8.550;2023-07-13T15:44:23;18.30;99.90
74513;DHT22;62992;52.052;8.550;2023-07-13T15:47:12;18.40;99.90
74513;DHT22;62992;52.052;8.550;2023-07-13T15:49:58;18.40;99.90
74513;DHT22;62992;52.052;8.550;2023-07-13T15:52:43;18.40;99.90
74513;DHT22;62992;52.052;8.550;2023-07-13T15:55:27;18.40;99.90
74513;DHT22;62992;52.052;8.550;2023-07-13T15:58:12;18.30;99.90
74513;DHT22;62992;52.052;8.550;2023-07-13T16:00:58;18.40;99.90
74513;DHT22;62992;52.052;8.550;2023-07-13T16:03:42;18.40;99.90
74513;DHT22;62992;52.052;8.550;2023-07-13T16:06:31;18.50;99.90
74513;DHT22;62992;52.052;8.550;2023-07-13T16:09:17;18.70;99.90
74513;DHT22;62992;52.052;8.550;2023-07-13T16:12:03;18.70;99.90
74513;DHT22;62992;52.052;8.550;2023-07-13T16:14:49;18.70;99.90
74513;DHT22;62992;52.052;8.550;2023-07-13T16:17:33;18.90;99.90
74513;DHT22;62992;52.052;8.550;2023-07-13T16:20:18;18.70;99.90
74513;DHT22;62992;52.052;8.550;2023-07-13T16:23:04;18.70;99.90
74513;DHT22;62992;52.052;8.550;2023-07-13T16:25:49;18.80;99.90
74513;DHT22;62992;52.052;8.550;2023-07-13T16:28:33;19.00;99.90
74513;DHT22;62992;52.052;8.550;2023-07-13T16:31:17;19.20;99.90
74513;DHT22;62992;52.052;8.550;2023-07-13T16:34:02;19.30;99.90
74513;DHT22;62992;52.052;8.550;2023-07-13T16:36:47;19.20;99.90
74513;DHT22;62992;52.052;8.550;2023-07-13T16:39:31;19.10;99.90
74513;DHT22;62992;52.052;8.550;2023-07-13T16:42:16;19.10;99.90
74513;DHT22;62992;52.052;8.550;2023-07-13T16:45:00;19.10;99.90
74513;DHT22;62992;52.052;8.550;2023-07-13T16:47:44;19.10;99.90
74513;DHT22;62992;52.052;8.550;2023-07-13T16:50:32;19.30;99.90
74513;DHT22;62992;52.052;8.550;2023-07-13T16:53:20;19.40;99.90
74513;DHT22;62992;52.052;8.550;2023-07-13T16:56:05;19.30;99.90
74513;DHT22;62992;52.052;8.550;2023-07-13T16:58:53;19.40;99.90
74513;DHT22;62992;52.052;8.550;2023-07-13T17:01:38;19.40;99.90
74513;DHT22;62992;52.052;8.550;2023-07-13T17:04:22;19.50;99.90
74513;DHT22;62992;52.052;8.550;2023-07-13T17:07:07;19.60;99.90
74513;DHT22;62992;52.052;8.550;2023-07-13T17:09:52;19.70;99.90
74513;DHT22;62992;52.052;8.550;2023-07-13T17:12:37;19.80;99.90
74513;DHT22;62992;52.052;8.550;2023-07-13T17:15:22;19.80;99.90
74513;DHT22;62992;52.052;8.550;2023-07-13T17:18:09;19.60;99.90
74513;DHT22;62992;52.052;8.550;2023-07-13T17:20:54;19.60;99.90
74513;DHT22;62992;52.052;8.550;2023-07-13T17:23:38;19.60;99.90
74513;DHT22;62992;52.052;8.550;2023-07-13T17:26:23;19.40;99.90
74513;DHT22;62992;52.052;8.550;2023-07-13T17:29:07;19.40;99.90
74513;DHT22;62992;52.052;8.550;2023-07-13T17:31:53;19.30;99.90
74513;DHT22;62992;52.052;8.550;2023-07-13T17:34:37;19.40;99.90
74513;DHT22;62992;52.052;8.550;2023-07-13T17:37:28;19.40;99.90
74513;DHT22;62992;52.052;8.550;2023-07-13T17:40:13;19.20;99.90
74513;DHT22;62992;52.052;8.550;2023-07-13T17:43:01;19.30;99.90
74513;DHT22;62992;52.052;8.550;2023-07-13T17:45:45;19.30;99.90
74513;DHT22;62992;52.052;8.550;2023-07-13T17:48:29;19.30;99.90
74513;DHT22;62992;52.052;8.550;2023-07-13T17:51:14;19.20;99.90
74513;DHT22;62992;52.052;8.550;2023-07-13T17:53:58;19.20;99.90
74513;DHT22;62992;52.052;8.550;2023-07-13T17:56:42;19.20;99.90
74513;DHT22;62992;52.052;8.550;2023-07-13T17:59:27;19.10;99.90
74513;DHT22;62992;52.052;8.550;2023-07-13T18:02:15;18.90;99.90
74513;DHT22;62992;52.052;8.550;2023-07-13T18:05:00;19.00;99.90
74513;DHT22;62992;52.052;8.550;2023-07-13T18:07:52;19.00;99.90
74513;DHT22;62992;52.052;8.550;2023-07-13T18:10:36;19.00;99.90
74513;DHT22;62992;52.052;8.550;2023-07-13T18:13:21;18.90;99.90
74513;DHT22;62992;52.052;8.550;2023-07-13T18:16:11;18.70;99.90
74513;DHT22;62992;52.052;8.550;2023-07-13T18:18:58;18.70;99.90
74513;DHT22;62992;52.052;8.550;2023-07-13T18:21:43;18.80;99.90
74513;DHT22;62992;52.052;8.550;2023-07-13T18:24:27;18.70;99.90
74513;DHT22;62992;52.052;8.550;2023-07-13T18:27:12;18.60;99.90
74513;DHT22;62992;52.052;8.550;2023-07-13T18:29:56;18.80;99.90
74513;DHT22;62992;52.052;8.550;2023-07-13T18:32:41;18.80;99.90